createdAt,value
2019-04-23T00:00:03.717Z,58.50
2019-04-23T00:02:47.158Z,58.70
2019-04-23T00:08:22.729Z,58.90
2019-04-23T00:13:43.857Z,58.80
2019-04-23T00:16:36.409Z,58.90
2019-04-23T00:19:08.319Z,58.80
2019-04-23T00:22:13.359Z,58.90
2019-04-23T00:30:27.580Z,59.20
2019-04-23T00:33:07.509Z,59.30
2019-04-23T00:35:44.064Z,59.60
2019-04-23T00:38:33.506Z,59.60
2019-04-23T00:41:30.884Z,59.80
2019-04-23T00:46:41.462Z,59.60
2019-04-23T00:49:27.019Z,59.60
2019-04-23T00:52:16.425Z,59.60
2019-04-23T00:54:57.512Z,59.70
2019-04-23T00:57:50.187Z,59.80
2019-04-23T01:05:44.725Z,60.50
2019-04-23T01:11:14.804Z,60.90
2019-04-23T01:13:54.026Z,60.80
2019-04-23T01:16:37.495Z,61.10
2019-04-23T01:19:31.677Z,61.20
2019-04-23T01:22:12.579Z,61.20
2019-04-23T01:28:47.962Z,61.10
2019-04-23T01:31:47.554Z,61.40
2019-04-23T01:34:20.196Z,61.10
2019-04-23T01:36:57.476Z,61.20
2019-04-23T01:39:38.350Z,61.20
2019-04-23T01:42:29.010Z,61.30
2019-04-23T01:45:18.409Z,61.40
2019-04-23T01:47:49.594Z,61.50
2019-04-23T01:50:41.454Z,61.40
2019-04-23T01:53:18.438Z,61.60
2019-04-23T01:55:59.207Z,61.80
2019-04-23T02:01:25.759Z,62.10
2019-04-23T02:04:11.290Z,62.30
2019-04-23T02:06:53.723Z,62.50
2019-04-23T02:09:55.750Z,62.70
2019-04-23T02:12:21.427Z,62.70
2019-04-23T02:15:10.277Z,62.80
2019-04-23T02:17:47.441Z,62.90
2019-04-23T02:20:29.306Z,63.20
2019-04-23T02:23:32.663Z,63.30
2019-04-23T02:26:15.198Z,63.40
2019-04-23T02:29:03.542Z,63.70
2019-04-23T02:31:57.600Z,64.00
2019-04-23T02:37:35.071Z,64.50
2019-04-23T02:40:26.286Z,64.70
2019-04-23T02:43:01.635Z,65.00
2019-04-23T02:45:42.724Z,65.00
2019-04-23T02:53:55.620Z,65.90
2019-04-23T02:56:41.434Z,65.90
2019-04-23T03:02:41.369Z,66.70
2019-04-23T03:05:36.645Z,66.90
2019-04-23T03:16:33.922Z,68.30
2019-04-23T03:19:09.776Z,68.30
2019-04-23T03:24:55.097Z,69.60
2019-04-23T03:27:34.210Z,68.70
2019-04-23T03:30:49.601Z,68.60
2019-04-23T03:38:48.662Z,70.00
2019-04-23T03:43:57.171Z,71.70
2019-04-23T03:46:44.081Z,72.80
2019-04-23T03:49:30.052Z,74.20
2019-04-23T03:52:21.318Z,75.10
2019-04-23T03:55:11.700Z,77.10
2019-04-23T04:05:56.155Z,84.70
2019-04-23T04:08:55.961Z,87.70
2019-04-23T04:14:12.495Z,91.10
2019-04-23T04:16:45.028Z,91.50
2019-04-23T04:19:42.327Z,94.40
2019-04-23T04:22:13.541Z,96.70
2019-04-23T04:27:45.355Z,99.80
2019-04-23T04:30:54.506Z,99.90
2019-04-23T04:41:58.839Z,99.90
2019-04-23T04:44:43.343Z,99.90
2019-04-23T04:47:24.185Z,99.90
2019-04-23T04:52:48.866Z,99.90
2019-04-23T04:55:26.695Z,99.90
2019-04-23T04:58:18.064Z,99.90
2019-04-23T05:01:04.196Z,99.90
2019-04-23T05:03:29.693Z,99.90
2019-04-23T05:09:00.643Z,99.90
2019-04-23T05:14:35.406Z,99.90
2019-04-23T05:17:24.066Z,99.90
2019-04-23T05:20:21.098Z,99.90
2019-04-23T05:23:19.505Z,99.90
2019-04-23T05:25:45.744Z,99.90
2019-04-23T05:28:33.031Z,99.90
2019-04-23T05:31:17.669Z,99.90
2019-04-23T05:36:40.187Z,99.90
2019-04-23T05:41:58.938Z,99.90
2019-04-23T05:44:50.246Z,99.90
2019-04-23T05:47:39.916Z,99.90
2019-04-23T05:50:17.454Z,99.90
2019-04-23T05:53:02.499Z,99.90
2019-04-23T05:55:46.037Z,99.90
2019-04-23T06:01:22.187Z,99.90
2019-04-23T06:03:58.223Z,99.90
2019-04-23T06:06:38.998Z,99.90
2019-04-23T06:09:22.143Z,99.90
2019-04-23T06:12:24.921Z,99.90
2019-04-23T06:14:57.346Z,99.90
2019-04-23T06:17:39.265Z,99.90
2019-04-23T06:20:27.609Z,99.10
2019-04-23T06:23:30.374Z,98.20
2019-04-23T06:31:20.268Z,96.50
2019-04-23T06:34:04.241Z,96.40
2019-04-23T06:39:33.195Z,95.40
2019-04-23T06:42:08.019Z,94.60
2019-04-23T06:50:14.777Z,93.70
2019-04-23T06:52:57.422Z,93.50
2019-04-23T06:55:49.447Z,93.30
2019-04-23T06:58:34.233Z,93.30
2019-04-23T07:01:12.981Z,92.90
2019-04-23T07:04:02.967Z,92.70
2019-04-23T07:06:38.367Z,92.50
2019-04-23T07:09:13.585Z,92.70
2019-04-23T07:12:05.324Z,92.40
2019-04-23T07:14:51.431Z,92.40
2019-04-23T07:17:24.985Z,92.10
2019-04-23T07:20:14.178Z,91.80
2019-04-23T07:25:39.060Z,91.60
2019-04-23T07:28:39.359Z,91.70
2019-04-23T07:31:19.207Z,91.40
2019-04-23T07:33:57.663Z,91.30
2019-04-23T07:36:41.116Z,91.30
2019-04-23T07:39:23.009Z,91.10
2019-04-23T07:45:09.409Z,90.50
2019-04-23T07:50:53.566Z,89.60
2019-04-23T07:53:40.112Z,89.00
2019-04-23T07:56:21.450Z,89.10
2019-04-23T07:59:07.353Z,89.30
2019-04-23T08:01:49.183Z,87.80
2019-04-23T08:04:35.518Z,87.90
2019-04-23T08:07:17.904Z,87.00
2019-04-23T08:10:03.415Z,86.40
2019-04-23T08:12:49.285Z,86.70
2019-04-23T08:15:28.314Z,86.00
2019-04-23T08:18:07.152Z,84.90
2019-04-23T08:20:49.640Z,85.00
2019-04-23T08:23:38.276Z,84.50
2019-04-23T08:26:29.561Z,84.70
2019-04-23T08:29:12.234Z,84.10
2019-04-23T08:37:27.071Z,82.30
2019-04-23T08:40:25.228Z,81.50
2019-04-23T08:43:47.924Z,81.40
2019-04-23T08:46:46.711Z,81.80
2019-04-23T08:49:22.767Z,79.90
2019-04-23T08:57:30.721Z,80.40
2019-04-23T09:00:07.778Z,80.30
2019-04-23T09:03:12.860Z,80.00
2019-04-23T09:05:38.789Z,80.60
2019-04-23T09:08:27.361Z,80.70
2019-04-23T09:19:16.141Z,81.70
2019-04-23T09:22:05.956Z,80.80
2019-04-23T09:24:25.785Z,80.00
2019-04-23T09:27:34.709Z,79.70
2019-04-23T09:30:22.887Z,80.40
2019-04-23T09:33:06.823Z,80.00
2019-04-23T09:35:48.371Z,79.00
2019-04-23T09:39:12.950Z,78.50
2019-04-23T09:42:29.658Z,78.30
2019-04-23T09:45:11.105Z,77.80
2019-04-23T09:48:01.825Z,76.90
2019-04-23T09:50:52.494Z,76.10
2019-04-23T09:56:14.468Z,74.90
2019-04-23T09:59:02.487Z,75.40
2019-04-23T10:01:50.165Z,76.50
2019-04-23T10:04:13.504Z,75.60
2019-04-23T10:07:00.306Z,75.00
2019-04-23T10:09:27.347Z,75.50
2019-04-23T10:12:09.445Z,75.00
2019-04-23T10:14:59.009Z,73.30
2019-04-23T10:17:35.992Z,73.70
2019-04-23T10:20:18.247Z,71.70
2019-04-23T10:23:00.315Z,71.60
2019-04-23T10:25:43.669Z,71.50
2019-04-23T10:28:29.691Z,70.70
2019-04-23T10:31:12.500Z,70.40
2019-04-23T10:33:55.963Z,70.40
2019-04-23T10:36:38.651Z,69.50
2019-04-23T10:39:25.856Z,67.80
2019-04-23T10:42:05.767Z,66.90
2019-04-23T10:44:55.479Z,66.10
2019-04-23T10:48:24.731Z,66.00
2019-04-23T10:51:26.013Z,66.10
2019-04-23T10:53:56.265Z,65.70
2019-04-23T10:57:04.019Z,65.60
2019-04-23T10:59:35.034Z,64.80
2019-04-23T11:02:51.320Z,64.40
2019-04-23T11:05:59.121Z,62.60
2019-04-23T11:08:42.374Z,61.90
2019-04-23T11:11:29.285Z,62.70
2019-04-23T11:14:23.176Z,62.20
2019-04-23T11:19:54.518Z,56.60
2019-04-23T11:22:44.190Z,54.70
2019-04-23T11:25:15.456Z,52.90
2019-04-23T11:30:54.286Z,51.90
2019-04-23T11:39:42.988Z,50.20
2019-04-23T11:42:18.145Z,48.90
2019-04-23T11:48:14.201Z,45.80
2019-04-23T11:50:39.579Z,45.70
2019-04-23T11:50:49.913Z,47.30
2019-04-23T11:53:10.083Z,45.20
2019-04-23T11:58:47.718Z,44.70
2019-04-23T12:01:37.449Z,45.20
2019-04-23T12:07:14.730Z,44.00
2019-04-23T12:10:26.904Z,44.60
2019-04-23T12:12:53.446Z,43.90
2019-04-23T12:18:18.096Z,43.60
2019-04-23T12:24:58.837Z,42.30
2019-04-23T12:27:25.331Z,42.40
2019-04-23T12:30:03.680Z,41.10
2019-04-23T12:38:23.920Z,40.30
2019-04-23T12:40:57.839Z,39.40
2019-04-23T12:43:40.473Z,38.90
2019-04-23T12:46:29.801Z,39.50
2019-04-23T12:49:25.039Z,39.20
2019-04-23T12:51:54.813Z,40.20
2019-04-23T12:57:30.843Z,43.00
2019-04-23T13:02:48.512Z,40.80
2019-04-23T13:08:30.597Z,39.60
2019-04-23T13:11:23.259Z,39.90
2019-04-23T13:13:51.972Z,40.40
2019-04-23T13:16:58.997Z,40.60
2019-04-23T13:19:32.982Z,39.70
2019-04-23T13:22:08.202Z,39.80
2019-04-23T13:24:48.744Z,40.50
2019-04-23T13:27:41.615Z,41.50
2019-04-23T13:33:21.139Z,40.40
2019-04-23T13:36:17.451Z,40.70
2019-04-23T13:44:08.762Z,40.80
2019-04-23T13:46:59.981Z,41.20
2019-04-23T13:49:55.354Z,41.80
2019-04-23T13:58:14.703Z,41.60
2019-04-23T14:01:20.136Z,42.30
2019-04-23T14:10:04.693Z,40.40
2019-04-23T14:12:35.178Z,40.10
2019-04-23T14:15:21.645Z,40.20
2019-04-23T14:20:47.095Z,41.20
2019-04-23T14:23:44.208Z,42.10
2019-04-23T14:32:29.056Z,44.80
2019-04-23T14:35:28.799Z,45.10
2019-04-23T14:38:11.392Z,45.90
2019-04-23T14:43:25.748Z,47.30
2019-04-23T14:49:18.907Z,47.20
2019-04-23T14:52:10.477Z,47.80
2019-04-23T14:57:45.449Z,48.50
2019-04-23T15:00:31.564Z,48.90
2019-04-23T15:03:08.476Z,49.30
2019-04-23T15:05:56.820Z,49.70
2019-04-23T15:08:44.610Z,51.00
2019-04-23T15:13:53.877Z,52.00
2019-04-23T15:25:01.377Z,54.10
2019-04-23T15:30:08.672Z,54.70
2019-04-23T15:35:57.072Z,55.90
2019-04-23T15:41:13.844Z,56.00
2019-04-23T15:46:40.988Z,55.80
2019-04-23T15:49:22.932Z,56.50
2019-04-23T15:52:06.989Z,56.10
2019-04-23T15:54:50.549Z,56.20
2019-04-23T15:57:46.371Z,56.40
2019-04-23T16:00:10.753Z,56.50
2019-04-23T16:02:54.059Z,57.00
2019-04-23T16:05:37.115Z,57.10
2019-04-23T16:08:59.470Z,57.70
2019-04-23T16:17:04.164Z,58.30
2019-04-23T16:19:49.396Z,58.90
2019-04-23T16:22:26.839Z,59.30
2019-04-23T16:25:13.059Z,59.30
2019-04-23T16:27:59.667Z,60.10
2019-04-23T16:30:34.713Z,59.70
2019-04-23T16:33:11.133Z,60.00
2019-04-23T16:36:12.698Z,59.90
2019-04-23T16:41:30.963Z,60.00
2019-04-23T16:44:20.041Z,60.90
2019-04-23T16:47:04.430Z,61.30
2019-04-23T16:49:44.381Z,60.30
2019-04-23T16:52:21.892Z,61.00
2019-04-23T16:55:07.370Z,60.50
2019-04-23T16:57:59.388Z,60.70
2019-04-23T17:00:43.669Z,60.90
2019-04-23T17:06:03.968Z,61.20
2019-04-23T17:08:57.893Z,61.40
2019-04-23T17:14:17.880Z,61.30
2019-04-23T17:16:49.884Z,61.80
2019-04-23T17:19:56.972Z,62.40
2019-04-23T17:22:17.808Z,62.60
2019-04-23T17:25:22.402Z,62.40
2019-04-23T17:28:00.778Z,62.90
2019-04-23T17:30:32.327Z,64.10
2019-04-23T17:33:19.121Z,63.80
2019-04-23T17:36:13.195Z,64.80
2019-04-23T17:38:49.567Z,66.00
2019-04-23T17:41:38.953Z,66.40
2019-04-23T17:44:48.428Z,66.90
2019-04-23T17:47:28.541Z,67.10
2019-04-23T17:50:28.733Z,67.70
2019-04-23T17:53:15.190Z,68.00
2019-04-23T17:56:15.268Z,68.60
2019-04-23T18:06:50.280Z,70.80
2019-04-23T18:09:37.529Z,70.80
2019-04-23T18:12:31.042Z,71.00
2019-04-23T18:15:03.498Z,70.90
2019-04-23T18:17:51.116Z,72.20
2019-04-23T18:23:41.313Z,72.50
2019-04-23T18:32:35.942Z,73.50
2019-04-23T18:35:21.499Z,73.90
2019-04-23T18:37:56.361Z,74.40
2019-04-23T18:41:00.823Z,75.60
2019-04-23T18:43:55.124Z,77.00
2019-04-23T18:46:36.963Z,78.70
2019-04-23T18:49:41.043Z,79.60
2019-04-23T18:55:06.748Z,82.80
2019-04-23T18:57:53.318Z,83.80
2019-04-23T19:00:49.630Z,85.20
2019-04-23T19:06:29.419Z,88.70
2019-04-23T19:17:46.663Z,91.50
2019-04-23T19:20:27.470Z,91.80
2019-04-23T19:23:21.064Z,92.60
2019-04-23T19:25:46.321Z,93.80
2019-04-23T19:31:44.390Z,94.00
2019-04-23T19:39:45.345Z,95.00
2019-04-23T19:42:42.510Z,95.00
2019-04-23T19:45:17.129Z,95.30
2019-04-23T19:50:48.526Z,96.60
2019-04-23T19:53:32.268Z,96.50
2019-04-23T20:01:55.290Z,99.80
2019-04-23T20:04:16.054Z,99.90
2019-04-23T20:07:12.287Z,99.90
2019-04-23T20:09:48.699Z,99.90
2019-04-23T20:12:33.397Z,99.90
2019-04-23T20:15:00.093Z,99.90
2019-04-23T20:17:54.131Z,99.90
2019-04-23T20:20:43.888Z,99.90
2019-04-23T20:23:40.353Z,99.90
2019-04-23T20:26:16.000Z,99.90
2019-04-23T20:29:29.726Z,99.90
2019-04-23T20:40:15.760Z,99.90
2019-04-23T20:42:52.886Z,99.90
2019-04-23T20:45:55.842Z,99.90
2019-04-23T20:48:53.628Z,99.90
2019-04-23T20:51:34.083Z,99.90
2019-04-23T20:54:28.719Z,99.90
2019-04-23T20:57:22.846Z,99.90
2019-04-23T21:05:50.415Z,99.90
2019-04-23T21:09:07.354Z,99.90
2019-04-23T21:17:18.695Z,99.90
2019-04-23T21:22:41.577Z,99.90
2019-04-23T21:25:26.576Z,99.90
2019-04-23T21:28:10.053Z,99.90
2019-04-23T21:31:19.750Z,99.90
2019-04-23T21:33:59.316Z,99.90
2019-04-23T21:36:37.664Z,99.90
2019-04-23T21:39:34.951Z,99.90
2019-04-23T21:42:51.742Z,99.90
2019-04-23T21:45:48.639Z,99.90
2019-04-23T21:48:15.729Z,99.90
2019-04-23T21:51:09.514Z,99.90
2019-04-23T21:53:46.363Z,99.90
2019-04-23T21:56:23.312Z,99.90
2019-04-23T21:59:06.995Z,99.90
2019-04-23T22:02:05.223Z,99.90
2019-04-23T22:07:27.374Z,99.90
2019-04-23T22:10:14.630Z,99.90
2019-04-23T22:13:09.596Z,99.90
2019-04-23T22:16:00.438Z,99.90
2019-04-23T22:18:25.935Z,99.90
2019-04-23T22:21:07.420Z,99.90
2019-04-23T22:23:59.556Z,99.90
2019-04-23T22:31:52.169Z,99.90
2019-04-23T22:37:24.055Z,99.90
2019-04-23T22:40:07.474Z,99.90
2019-04-23T22:45:48.471Z,99.90
2019-04-23T22:48:57.659Z,99.90
2019-04-23T22:51:58.604Z,99.90
2019-04-23T22:54:30.634Z,99.90
2019-04-23T22:57:45.231Z,99.90
2019-04-23T23:00:08.379Z,99.90
2019-04-23T23:09:01.134Z,99.90
2019-04-23T23:11:34.539Z,99.90
2019-04-23T23:17:02.281Z,99.90
2019-04-23T23:20:03.620Z,99.90
2019-04-23T23:22:28.246Z,99.90
2019-04-23T23:25:24.661Z,99.90
2019-04-23T23:28:12.164Z,99.90
2019-04-23T23:30:52.029Z,99.90
2019-04-23T23:36:08.642Z,99.90
2019-04-23T23:38:59.481Z,99.90
2019-04-23T23:41:35.694Z,99.90
2019-04-23T23:47:04.229Z,99.90
2019-04-23T23:49:48.431Z,99.90
2019-04-23T23:52:29.505Z,99.90
2019-04-23T23:57:53.802Z,99.90
